Time;durP1;ratioP1;P1;durP2;ratioP2;P2;SDS_P1;SDS_P2;PMS_P1;PMS_P2;Temp;Humidity;BMP_temperature;BMP_pressure;BME280_temperature;BME280_humidity;BME280_pressure;Samples;Min_cycle;Max_cycle;Signal;HPM_P1;HPM_P2
2022/01/29 00:02:09;;;;;;;58.50;31.00;;;7.00;99.90;;;;;;5064769;28;25106;-64
2022/01/29 00:04:35;;;;;;;61.42;31.02;;;7.10;99.90;;;;;;5064983;28;25191;-62
2022/01/29 00:07:01;;;;;;;58.50;31.30;;;7.00;99.90;;;;;;5067979;28;25085;-64
2022/01/29 00:09:26;;;;;;;62.03;32.45;;;7.10;99.90;;;;;;5061446;28;25115;-62
2022/01/29 00:11:52;;;;;;;51.35;29.63;;;7.10;99.90;;;;;;5063540;28;25151;-60
2022/01/29 00:14:18;;;;;;;59.53;31.83;;;7.10;99.90;;;;;;5065595;28;25063;-64
2022/01/29 00:16:44;;;;;;;57.40;30.92;;;7.10;99.90;;;;;;5070085;28;25056;-62
2022/01/29 00:19:09;;;;;;;55.17;30.10;;;7.10;99.90;;;;;;5068969;28;25068;-61
2022/01/29 00:21:35;;;;;;;52.42;29.08;;;7.10;99.90;;;;;;5070035;28;25061;-62
2022/01/29 00:24:00;;;;;;;58.70;31.05;;;7.20;99.90;;;;;;5067239;28;25083;-62
2022/01/29 00:26:27;;;;;;;49.67;28.92;;;7.10;99.90;;;;;;5049162;28;25091;-61
2022/01/29 00:28:55;;;;;;;52.95;33.45;;;7.20;99.90;;;;;;5062482;28;25051;-61
2022/01/29 00:31:20;;;;;;;53.05;30.85;;;7.10;99.90;;;;;;5069392;28;25059;-61
2022/01/29 00:33:46;;;;;;;56.83;31.65;;;7.10;99.90;;;;;;5068749;28;25068;-61
2022/01/29 00:36:11;;;;;;;63.08;31.35;;;7.10;99.90;;;;;;5064454;28;25068;-61
2022/01/29 00:38:37;;;;;;;61.20;31.60;;;7.10;99.90;;;;;;5068331;28;25064;-61
2022/01/29 00:41:03;;;;;;;55.67;31.80;;;7.20;99.90;;;;;;5068766;28;25061;-61
2022/01/29 00:43:28;;;;;;;59.47;33.65;;;7.10;99.90;;;;;;5065146;28;25073;-61
2022/01/29 00:45:55;;;;;;;56.17;32.38;;;7.10;99.90;;;;;;5066370;28;25142;-61
2022/01/29 00:48:20;;;;;;;57.63;31.92;;;7.10;99.90;;;;;;5064291;28;25067;-62
2022/01/29 00:50:46;;;;;;;59.65;31.50;;;7.10;99.90;;;;;;5068020;28;25065;-61
2022/01/29 00:53:12;;;;;;;61.92;33.22;;;7.20;99.90;;;;;;5068025;28;25114;-61
2022/01/29 00:55:40;;;;;;;64.72;34.53;;;7.20;99.90;;;;;;5067266;28;25152;-62
2022/01/29 00:58:06;;;;;;;56.28;31.88;;;7.20;99.90;;;;;;5068592;28;25097;-62
2022/01/29 01:00:31;;;;;;;68.50;36.40;;;7.20;99.90;;;;;;5066903;28;25086;-61
2022/01/29 01:02:57;;;;;;;56.22;32.50;;;7.20;99.90;;;;;;5056304;28;25141;-61
2022/01/29 01:05:22;;;;;;;67.60;34.30;;;7.10;99.90;;;;;;5067985;28;25048;-61
2022/01/29 01:07:48;;;;;;;60.33;33.20;;;7.20;99.90;;;;;;5069080;28;25063;-62
2022/01/29 01:10:14;;;;;;;54.13;30.88;;;7.20;99.90;;;;;;5066271;28;25055;-61
2022/01/29 01:12:39;;;;;;;64.68;35.75;;;7.20;99.90;;;;;;5058855;28;25062;-60
2022/01/29 01:15:06;;;;;;;65.20;36.38;;;7.20;99.90;;;;;;5068891;28;25134;-63
2022/01/29 01:17:31;;;;;;;60.42;34.80;;;7.20;99.90;;;;;;5067636;28;25142;-61
2022/01/29 01:19:57;;;;;;;66.03;37.60;;;7.10;99.90;;;;;;5066305;28;25084;-61
2022/01/29 01:22:23;;;;;;;69.80;37.38;;;7.10;99.90;;;;;;5067819;28;25100;-61
2022/01/29 01:24:48;;;;;;;66.88;36.47;;;7.20;99.90;;;;;;5060500;28;25069;-61
2022/01/29 01:27:15;;;;;;;59.25;36.90;;;7.20;99.90;;;;;;5068257;28;25081;-61
2022/01/29 01:29:40;;;;;;;68.55;37.25;;;7.20;99.90;;;;;;5067632;28;25107;-61
2022/01/29 01:32:10;;;;;;;69.18;37.03;;;7.20;99.90;;;;;;5064980;28;25167;-62
2022/01/29 01:34:39;;;;;;;62.20;35.50;;;7.20;99.90;;;;;;5047903;28;25060;-60
2022/01/29 01:37:09;;;;;;;58.97;35.40;;;7.20;99.90;;;;;;5048357;28;25071;-60
2022/01/29 01:39:37;;;;;;;60.72;33.78;;;7.30;99.90;;;;;;5067773;28;25062;-60
2022/01/29 01:42:05;;;;;;;55.33;34.97;;;7.30;99.90;;;;;;5068167;28;25147;-61
2022/01/29 01:44:38;;;;;;;53.65;32.38;;;7.20;99.90;;;;;;5067263;28;25134;-61
2022/01/29 01:47:05;;;;;;;57.63;33.83;;;7.30;99.90;;;;;;5067899;28;25079;-60
2022/01/29 01:49:30;;;;;;;54.92;31.85;;;7.30;99.90;;;;;;5067562;28;25152;-61
2022/01/29 01:51:56;;;;;;;60.13;33.80;;;7.30;99.90;;;;;;5067268;28;25138;-61
2022/01/29 01:54:22;;;;;;;49.70;29.70;;;7.30;99.90;;;;;;5067819;28;25063;-61
2022/01/29 01:56:48;;;;;;;53.30;30.10;;;7.30;99.90;;;;;;5067621;28;25054;-60
2022/01/29 01:59:13;;;;;;;45.90;28.77;;;7.30;99.90;;;;;;5067462;28;25061;-62
2022/01/29 02:01:39;;;;;;;51.53;29.63;;;7.30;99.90;;;;;;5067354;28;25142;-61
2022/01/29 02:04:04;;;;;;;48.90;28.35;;;7.30;99.90;;;;;;5065861;28;25151;-62
2022/01/29 02:06:30;;;;;;;46.88;30.05;;;7.40;99.90;;;;;;5061205;28;25152;-61
2022/01/29 02:09:01;;;;;;;46.15;29.58;;;7.40;99.90;;;;;;5066331;28;25064;-61
2022/01/29 02:11:28;;;;;;;54.10;30.67;;;7.40;99.90;;;;;;5070359;28;25147;-61
2022/01/29 02:13:56;;;;;;;50.75;28.90;;;7.40;99.90;;;;;;5059267;28;25149;-59
2022/01/29 02:16:23;;;;;;;60.33;31.55;;;7.40;99.90;;;;;;5068398;28;25148;-63
2022/01/29 02:18:48;;;;;;;53.15;30.25;;;7.40;99.90;;;;;;5059181;28;25079;-61
2022/01/29 02:21:15;;;;;;;49.42;28.85;;;7.50;99.90;;;;;;5065888;28;25111;-61
2022/01/29 02:23:41;;;;;;;43.63;25.33;;;7.50;99.90;;;;;;5054268;28;25069;-62
2022/01/29 02:26:06;;;;;;;46.58;26.63;;;7.50;99.90;;;;;;5069535;28;25072;-61
2022/01/29 02:28:32;;;;;;;40.45;22.60;;;7.60;99.90;;;;;;5063369;28;25097;-61
2022/01/29 02:31:02;;;;;;;49.00;25.17;;;7.60;99.90;;;;;;5069752;28;25159;-61
2022/01/29 02:33:30;;;;;;;36.45;21.17;;;7.60;99.90;;;;;;5072503;28;25069;-61
2022/01/29 02:35:57;;;;;;;43.30;21.08;;;7.60;99.90;;;;;;5081769;28;25058;-61
2022/01/29 02:38:24;;;;;;;40.53;19.42;;;7.70;99.90;;;;;;5070526;28;25065;-62
2022/01/29 02:40:55;;;;;;;35.47;16.88;;;7.70;99.90;;;;;;5070577;28;25080;-61
2022/01/29 02:43:43;;;;;;;38.90;19.38;;;7.70;99.90;;;;;;5069254;28;25078;-65
2022/01/29 02:48:45;;;;;;;39.72;19.55;;;7.70;99.90;;;;;;5070637;28;25068;-61
2022/01/29 02:51:11;;;;;;;46.00;19.88;;;7.70;99.90;;;;;;5052758;28;25067;-60
2022/01/29 02:53:37;;;;;;;45.22;21.00;;;7.80;99.90;;;;;;5049223;28;25087;-61
2022/01/29 02:56:03;;;;;;;53.97;23.05;;;7.70;99.90;;;;;;5050718;28;25056;-60
2022/01/29 02:58:28;;;;;;;41.38;22.08;;;7.80;99.90;;;;;;5050057;28;25150;-59
2022/01/29 03:00:54;;;;;;;44.10;24.75;;;7.80;99.90;;;;;;5050290;28;25136;-60
2022/01/29 03:03:20;;;;;;;49.30;26.63;;;7.70;99.90;;;;;;5050446;28;25136;-61
2022/01/29 03:05:45;;;;;;;47.42;26.30;;;7.80;99.90;;;;;;5058665;28;25105;-60
2022/01/29 03:08:11;;;;;;;54.28;30.10;;;7.70;99.90;;;;;;5069918;28;25080;-60
2022/01/29 03:10:37;;;;;;;51.13;28.77;;;7.70;99.90;;;;;;5070364;28;25066;-61
2022/01/29 03:13:03;;;;;;;47.58;30.15;;;7.80;99.90;;;;;;5070168;28;25065;-61
2022/01/29 03:15:28;;;;;;;51.97;29.52;;;7.80;99.90;;;;;;5069395;28;25141;-62
2022/01/29 03:17:54;;;;;;;81.60;34.60;;;7.80;99.90;;;;;;5069900;28;25074;-60
2022/01/29 03:20:19;;;;;;;49.15;28.23;;;7.80;99.90;;;;;;5085543;28;25078;-61
2022/01/29 03:22:45;;;;;;;47.92;31.40;;;7.70;99.90;;;;;;5069758;28;25130;-61
2022/01/29 03:25:12;;;;;;;56.97;33.85;;;7.80;99.90;;;;;;5069265;28;25109;-61
2022/01/29 03:27:37;;;;;;;48.97;29.90;;;7.70;99.90;;;;;;5069360;28;25084;-62
2022/01/29 03:30:04;;;;;;;57.72;33.53;;;7.80;99.90;;;;;;5067996;28;25119;-62
2022/01/29 03:32:30;;;;;;;56.63;31.67;;;7.80;99.90;;;;;;5072264;28;25078;-61
2022/01/29 03:34:55;;;;;;;55.38;32.45;;;7.80;99.90;;;;;;5068742;28;25155;-60
2022/01/29 03:37:21;;;;;;;51.97;32.13;;;7.80;99.90;;;;;;5068946;28;25070;-62
2022/01/29 03:39:47;;;;;;;51.50;31.95;;;7.80;99.90;;;;;;5069530;28;25167;-62
2022/01/29 03:42:14;;;;;;;55.97;32.03;;;7.80;99.90;;;;;;5067643;28;25148;-61
2022/01/29 03:44:40;;;;;;;53.30;32.55;;;7.80;99.90;;;;;;5068851;28;25103;-60
2022/01/29 03:47:05;;;;;;;49.72;30.35;;;7.90;99.90;;;;;;5069366;28;25161;-60
2022/01/29 03:49:31;;;;;;;54.38;31.90;;;7.80;99.90;;;;;;5049352;28;25054;-60
2022/01/29 03:51:57;;;;;;;50.30;30.27;;;7.90;99.90;;;;;;5049798;28;25064;-59
2022/01/29 03:54:22;;;;;;;48.22;30.30;;;7.90;99.90;;;;;;5049402;28;25053;-61
2022/01/29 03:56:48;;;;;;;50.75;30.27;;;7.90;99.90;;;;;;5049318;28;25074;-61
2022/01/29 03:59:13;;;;;;;52.72;31.58;;;7.90;99.90;;;;;;5051625;28;25121;-60
2022/01/29 04:01:39;;;;;;;43.92;29.08;;;7.90;99.90;;;;;;5071467;28;25137;-61
2022/01/29 04:04:04;;;;;;;45.55;29.60;;;7.90;99.90;;;;;;5070336;28;25081;-60
2022/01/29 04:06:31;;;;;;;47.92;29.27;;;7.90;99.90;;;;;;5070071;28;25068;-61
2022/01/29 04:08:57;;;;;;;49.70;30.83;;;7.90;99.90;;;;;;5070323;28;25096;-61
2022/01/29 04:11:23;;;;;;;46.22;28.85;;;7.90;99.90;;;;;;5069823;28;25100;-60
2022/01/29 04:13:49;;;;;;;49.38;28.35;;;8.00;99.90;;;;;;5069089;28;25113;-60
2022/01/29 04:16:17;;;;;;;43.75;27.65;;;7.90;99.90;;;;;;5067637;28;25396;-61
2022/01/29 04:18:43;;;;;;;46.47;27.70;;;8.00;99.90;;;;;;5068630;28;25068;-61
2022/01/29 04:21:09;;;;;;;43.88;27.55;;;8.00;99.90;;;;;;5068844;28;25071;-61
2022/01/29 04:23:35;;;;;;;40.80;27.38;;;8.00;99.90;;;;;;5068340;28;25068;-60
2022/01/29 04:26:03;;;;;;;42.40;25.42;;;8.10;99.90;;;;;;5064797;28;25144;-61
2022/01/29 04:28:33;;;;;;;39.20;24.10;;;8.10;99.90;;;;;;5057093;28;25125;-61
2022/01/29 04:31:05;;;;;;;39.28;22.10;;;8.10;99.90;;;;;;5057449;28;25128;-60
2022/01/29 04:33:31;;;;;;;42.17;22.97;;;8.20;99.90;;;;;;5057790;28;25146;-61
2022/01/29 04:36:03;;;;;;;34.28;20.13;;;8.20;99.90;;;;;;5058880;28;25080;-61
2022/01/29 04:38:30;;;;;;;34.22;19.63;;;8.20;99.90;;;;;;5057492;28;25146;-61
2022/01/29 04:41:00;;;;;;;32.45;20.58;;;8.30;99.90;;;;;;5058834;28;25080;-61
2022/01/29 04:43:26;;;;;;;39.05;20.75;;;8.20;99.90;;;;;;5060217;28;25073;-60
2022/01/29 04:45:51;;;;;;;38.28;20.38;;;8.20;99.90;;;;;;5051937;28;25067;-60
2022/01/29 04:48:17;;;;;;;38.65;18.77;;;8.20;99.90;;;;;;5049765;28;25121;-61
2022/01/29 04:50:43;;;;;;;31.27;16.75;;;8.20;99.90;;;;;;5050715;28;25058;-61
2022/01/29 04:53:08;;;;;;;31.95;15.48;;;8.30;99.90;;;;;;5063212;28;25057;-61
2022/01/29 04:55:34;;;;;;;34.72;14.48;;;8.30;99.90;;;;;;5062894;28;26175;-61
2022/01/29 04:58:00;;;;;;;36.15;14.80;;;8.30;99.90;;;;;;5059878;28;25109;-60
2022/01/29 05:00:26;;;;;;;27.65;13.35;;;8.30;99.90;;;;;;5058615;28;25062;-61
2022/01/29 05:02:55;;;;;;;30.67;12.50;;;8.40;99.90;;;;;;5063955;28;25062;-61
2022/01/29 05:05:21;;;;;;;30.20;11.43;;;8.30;99.90;;;;;;5067243;28;25110;-61
2022/01/29 05:07:48;;;;;;;27.77;12.35;;;8.40;99.90;;;;;;5067647;28;25055;-59
2022/01/29 05:10:14;;;;;;;29.30;12.38;;;8.40;99.90;;;;;;5067813;28;25165;-59
2022/01/29 05:12:47;;;;;;;35.75;12.05;;;8.40;99.90;;;;;;5067916;28;25074;-60
2022/01/29 05:28:35;;;;;;;27.77;10.50;;;8.40;99.90;;;;;;5067647;28;25077;-61
2022/01/29 05:31:00;;;;;;;27.67;10.13;;;8.50;99.90;;;;;;5067255;28;25146;-59
2022/01/29 05:33:26;;;;;;;31.05;10.60;;;8.40;99.90;;;;;;5062064;28;25069;-61
2022/01/29 05:35:51;;;;;;;33.75;10.82;;;8.50;99.90;;;;;;5053253;28;25073;-60
2022/01/29 05:38:17;;;;;;;27.30;10.07;;;8.50;99.90;;;;;;5054032;28;25083;-61
2022/01/29 05:40:42;;;;;;;21.92;10.00;;;8.50;99.90;;;;;;5065034;28;25107;-60
2022/01/29 05:43:08;;;;;;;28.52;8.95;;;8.50;99.90;;;;;;5058915;28;25063;-61
2022/01/29 05:45:33;;;;;;;28.17;8.85;;;8.50;99.90;;;;;;5065202;28;25066;-60
2022/01/29 05:47:59;;;;;;;20.80;8.07;;;8.50;99.90;;;;;;5057764;28;25070;-60
2022/01/29 05:50:24;;;;;;;25.02;8.15;;;8.50;99.90;;;;;;5059724;28;25075;-60
2022/01/29 05:52:50;;;;;;;22.52;8.65;;;8.60;99.90;;;;;;5066390;28;25069;-60
2022/01/29 05:55:15;;;;;;;23.42;9.32;;;8.60;99.90;;;;;;5058902;28;25058;-60
2022/01/29 05:57:41;;;;;;;33.45;8.70;;;8.60;99.90;;;;;;5061440;28;25076;-61
2022/01/29 06:00:07;;;;;;;27.02;8.43;;;8.60;99.90;;;;;;5055215;28;25057;-61
2022/01/29 06:02:33;;;;;;;25.55;7.65;;;8.60;99.90;;;;;;5063109;28;25113;-61
2022/01/29 06:04:58;;;;;;;27.13;8.57;;;8.60;99.90;;;;;;5062296;28;25117;-61
2022/01/29 06:07:24;;;;;;;28.45;8.60;;;8.60;99.90;;;;;;5056033;28;25168;-61
2022/01/29 06:09:49;;;;;;;26.27;9.00;;;8.60;99.90;;;;;;5059782;28;25053;-61
2022/01/29 06:12:15;;;;;;;27.05;9.07;;;8.60;99.90;;;;;;5061239;28;25157;-61
2022/01/29 06:14:40;;;;;;;24.15;8.60;;;8.60;99.90;;;;;;5066293;28;25123;-62
2022/01/29 06:17:06;;;;;;;25.50;10.02;;;8.60;99.90;;;;;;5066629;28;25106;-60
2022/01/29 06:19:32;;;;;;;29.75;9.88;;;8.60;99.90;;;;;;5087328;22;25108;-64
2022/01/29 06:21:57;;;;;;;31.08;11.48;;;8.60;99.90;;;;;;5064167;28;25148;-64
2022/01/29 06:24:23;;;;;;;34.63;11.55;;;8.50;99.90;;;;;;5053549;28;25069;-66
2022/01/29 06:26:48;;;;;;;29.65;10.07;;;8.50;99.90;;;;;;5050509;28;25107;-65
2022/01/29 06:29:14;;;;;;;37.42;10.85;;;8.50;99.90;;;;;;5055102;28;25069;-66
2022/01/29 06:31:40;;;;;;;31.75;11.32;;;8.50;99.90;;;;;;5053701;28;25111;-65
2022/01/29 06:34:05;;;;;;;30.92;9.98;;;8.50;99.90;;;;;;5071114;28;25060;-65
2022/01/29 06:36:31;;;;;;;24.20;9.88;;;8.50;99.90;;;;;;5056067;28;25043;-66
2022/01/29 06:38:56;;;;;;;34.28;10.10;;;8.50;99.90;;;;;;5081172;28;25111;-66
2022/01/29 06:41:22;;;;;;;21.63;10.23;;;8.50;99.90;;;;;;5052844;28;25115;-64
2022/01/29 06:43:47;;;;;;;36.05;11.00;;;8.50;99.90;;;;;;5086694;28;25159;-65
2022/01/29 06:46:13;;;;;;;34.63;10.07;;;8.50;99.90;;;;;;5068330;28;25077;-66
2022/01/29 06:48:39;;;;;;;20.30;8.90;;;8.50;99.90;;;;;;5072418;28;25107;-66
2022/01/29 06:51:04;;;;;;;32.88;10.20;;;8.50;99.90;;;;;;5072459;28;25105;-65
2022/01/29 06:53:30;;;;;;;27.70;8.50;;;8.50;99.90;;;;;;5072541;28;25079;-67
2022/01/29 06:55:55;;;;;;;29.45;8.95;;;8.60;99.90;;;;;;5072785;28;25074;-66
2022/01/29 06:58:21;;;;;;;26.17;8.40;;;8.60;99.90;;;;;;5073448;28;25059;-66
2022/01/29 07:00:46;;;;;;;18.73;7.75;;;8.60;99.90;;;;;;5073158;28;25090;-66
2022/01/29 07:03:12;;;;;;;35.55;10.02;;;8.60;99.90;;;;;;5073740;28;25105;-65
2022/01/29 07:05:37;;;;;;;31.77;8.48;;;8.60;99.90;;;;;;5076053;28;25064;-67
2022/01/29 07:08:04;;;;;;;22.48;7.43;;;8.60;99.90;;;;;;5072628;28;25060;-65
2022/01/29 07:10:30;;;;;;;21.83;8.18;;;8.60;99.90;;;;;;5074211;28;25061;-66
2022/01/29 07:12:55;;;;;;;19.52;6.72;;;8.70;99.90;;;;;;5070389;28;25055;-66
2022/01/29 07:15:21;;;;;;;28.65;7.07;;;8.70;99.90;;;;;;5070050;28;25052;-66
2022/01/29 07:17:46;;;;;;;19.95;6.82;;;8.70;99.90;;;;;;5069139;28;25098;-66
2022/01/29 07:20:12;;;;;;;26.88;6.60;;;8.70;99.90;;;;;;5072522;28;25071;-67
2022/01/29 07:22:39;;;;;;;31.35;7.38;;;8.70;99.90;;;;;;5069118;28;25067;-67
2022/01/29 07:25:05;;;;;;;23.35;7.93;;;8.70;99.90;;;;;;5069367;28;25052;-67
2022/01/29 07:27:31;;;;;;;25.88;7.75;;;8.70;99.90;;;;;;5068973;28;25131;-66
2022/01/29 07:29:57;;;;;;;19.70;7.70;;;8.70;99.90;;;;;;5068699;28;25076;-66
2022/01/29 07:32:22;;;;;;;23.92;7.65;;;8.80;99.90;;;;;;5069804;28;25052;-67
2022/01/29 07:34:48;;;;;;;22.25;8.30;;;8.80;99.90;;;;;;5068898;28;25075;-67
2022/01/29 07:37:13;;;;;;;30.00;9.77;;;8.90;99.90;;;;;;5048478;28;25061;-66
2022/01/29 07:39:39;;;;;;;34.80;9.52;;;8.90;99.90;;;;;;5068704;28;25156;-66
2022/01/29 07:42:05;;;;;;;40.67;9.98;;;8.90;99.90;;;;;;5069057;28;25066;-65
2022/01/29 07:44:30;;;;;;;24.42;8.80;;;8.90;99.90;;;;;;5068517;28;25053;-65
2022/01/29 07:46:56;;;;;;;18.40;7.95;;;8.90;99.90;;;;;;5068872;28;25129;-64
2022/01/29 07:49:22;;;;;;;26.30;8.60;;;8.90;99.90;;;;;;5068980;28;25091;-65
2022/01/29 07:51:47;;;;;;;36.20;9.35;;;8.90;99.90;;;;;;5069431;28;25135;-66
2022/01/29 07:54:13;;;;;;;30.20;8.88;;;8.90;99.90;;;;;;5068553;28;25152;-65
2022/01/29 07:56:38;;;;;;;25.33;8.57;;;9.00;99.90;;;;;;5068226;28;25064;-67
2022/01/29 07:59:04;;;;;;;30.15;9.60;;;9.00;99.90;;;;;;5068398;28;25050;-65
2022/01/29 08:01:30;;;;;;;28.95;9.20;;;9.00;99.90;;;;;;5068308;28;25129;-70
2022/01/29 08:03:56;;;;;;;20.98;8.20;;;9.00;99.90;;;;;;5068136;28;25124;-65
2022/01/29 08:06:22;;;;;;;26.35;8.30;;;9.00;99.90;;;;;;5065671;28;25079;-65
2022/01/29 08:08:51;;;;;;;23.85;9.07;;;9.00;99.90;;;;;;5068404;28;25093;-66
2022/01/29 08:11:17;;;;;;;39.45;8.85;;;9.00;99.90;;;;;;5065945;28;25080;-62
2022/01/29 08:13:46;;;;;;;19.90;6.32;;;9.00;99.90;;;;;;5068284;28;25173;-66
2022/01/29 08:16:12;;;;;;;23.95;8.25;;;9.00;99.90;;;;;;5068222;28;25132;-66
2022/01/29 08:18:37;;;;;;;18.05;6.10;;;9.10;99.90;;;;;;5049907;28;25068;-65
2022/01/29 08:21:03;;;;;;;26.63;7.22;;;9.10;99.90;;;;;;5068119;28;25090;-67
2022/01/29 08:23:28;;;;;;;28.95;7.43;;;9.10;99.90;;;;;;5069365;28;25076;-66
2022/01/29 08:25:54;;;;;;;19.83;6.35;;;9.10;99.90;;;;;;5071214;28;25104;-65
2022/01/29 08:28:20;;;;;;;21.58;6.63;;;9.10;99.90;;;;;;5071119;28;25115;-64
2022/01/29 08:30:45;;;;;;;19.73;6.32;;;9.10;99.90;;;;;;5070559;28;25058;-67
2022/01/29 08:33:16;;;;;;;22.65;5.95;;;9.10;99.90;;;;;;5075799;28;25105;-66
2022/01/29 08:35:43;;;;;;;26.48;6.40;;;9.20;99.90;;;;;;5074340;28;25053;-66
2022/01/29 08:38:08;;;;;;;26.52;6.22;;;9.20;99.90;;;;;;5069306;28;25090;-67
2022/01/29 08:40:34;;;;;;;25.02;6.20;;;9.20;99.90;;;;;;5067533;28;25167;-67
2022/01/29 08:42:59;;;;;;;20.88;5.82;;;9.20;99.90;;;;;;5068609;28;25044;-66
2022/01/29 08:45:25;;;;;;;21.38;5.75;;;9.20;99.90;;;;;;5047387;28;25082;-68
2022/01/29 08:47:50;;;;;;;19.95;5.72;;;9.20;99.90;;;;;;5049299;28;25153;-69
2022/01/29 08:50:16;;;;;;;24.80;5.97;;;9.20;99.90;;;;;;5062366;28;25153;-68
2022/01/29 08:52:41;;;;;;;17.35;5.03;;;9.20;99.90;;;;;;5060277;28;25116;-66
2022/01/29 08:55:09;;;;;;;19.83;4.97;;;9.20;99.90;;;;;;5068998;28;25144;-64
2022/01/29 08:57:35;;;;;;;19.48;4.95;;;9.20;99.90;;;;;;5068752;28;25055;-67
2022/01/29 09:00:02;;;;;;;24.40;4.90;;;9.20;99.90;;;;;;5068901;28;25086;-68
2022/01/29 09:02:28;;;;;;;20.10;4.45;;;9.20;99.90;;;;;;5068697;28;25074;-65
2022/01/29 09:04:55;;;;;;;18.83;4.03;;;9.20;99.90;;;;;;5050122;28;25062;-66
2022/01/29 09:07:21;;;;;;;13.13;3.70;;;9.20;99.90;;;;;;5069038;28;25084;-67
2022/01/29 09:09:46;;;;;;;17.05;4.40;;;9.20;99.90;;;;;;5068334;28;25113;-66
2022/01/29 09:12:13;;;;;;;21.73;5.70;;;9.20;99.90;;;;;;5077996;28;25058;-63
2022/01/29 09:14:39;;;;;;;12.95;3.80;;;9.20;99.90;;;;;;5060488;28;25058;-66
2022/01/29 09:17:05;;;;;;;21.45;5.30;;;9.20;99.90;;;;;;5067602;28;25135;-66
2022/01/29 09:19:31;;;;;;;23.08;5.35;;;9.10;99.90;;;;;;5066784;28;25061;-64
2022/01/29 09:21:57;;;;;;;16.52;4.35;;;9.10;99.90;;;;;;5069728;28;25116;-68
2022/01/29 09:24:22;;;;;;;13.60;3.83;;;9.10;99.90;;;;;;5066205;28;25123;-65
2022/01/29 09:26:48;;;;;;;14.43;4.35;;;9.20;99.90;;;;;;5067062;28;25068;-66
2022/01/29 09:29:14;;;;;;;16.02;4.38;;;9.20;99.90;;;;;;5067350;28;25136;-67
2022/01/29 09:31:39;;;;;;;22.63;4.80;;;9.30;99.90;;;;;;5066895;28;25066;-67
2022/01/29 09:34:05;;;;;;;17.58;3.40;;;9.30;99.90;;;;;;5055600;28;25090;-65
2022/01/29 09:36:30;;;;;;;14.45;4.30;;;9.40;99.90;;;;;;5073829;28;25053;-66
2022/01/29 09:38:56;;;;;;;13.98;3.47;;;9.40;99.90;;;;;;5075991;28;25046;-67
2022/01/29 09:41:26;;;;;;;20.92;4.10;;;9.40;99.90;;;;;;5068519;28;25083;-66
2022/01/29 09:43:53;;;;;;;14.90;3.60;;;9.50;99.90;;;;;;5067194;28;25101;-66
2022/01/29 09:46:19;;;;;;;18.15;3.85;;;9.50;99.90;;;;;;5050254;28;25070;-67
2022/01/29 09:48:44;;;;;;;15.98;4.25;;;9.50;99.90;;;;;;5066911;28;25061;-68
2022/01/29 09:51:14;;;;;;;18.23;3.55;;;9.50;99.90;;;;;;5068041;28;25120;-66
2022/01/29 09:53:43;;;;;;;13.65;3.33;;;9.50;99.90;;;;;;5050042;28;25127;-66
2022/01/29 09:56:09;;;;;;;18.45;4.03;;;9.60;99.90;;;;;;5047857;28;25080;-67
2022/01/29 09:58:34;;;;;;;9.43;3.28;;;9.70;99.90;;;;;;5048231;28;25136;-66
2022/01/29 10:01:00;;;;;;;9.88;2.80;;;9.70;99.90;;;;;;5048360;28;25160;-67
2022/01/29 10:03:26;;;;;;;13.70;3.28;;;9.80;99.90;;;;;;5052862;28;25087;-65
2022/01/29 10:05:53;;;;;;;12.48;2.75;;;9.90;99.90;;;;;;5055164;28;25052;-68
2022/01/29 10:08:20;;;;;;;19.00;3.42;;;10.00;99.90;;;;;;5049261;28;25065;-65
2022/01/29 10:10:56;;;;;;;11.75;3.15;;;10.10;99.90;;;;;;5030695;28;25151;-66
2022/01/29 10:13:30;;;;;;;15.98;2.67;;;10.10;99.90;;;;;;5048599;28;25120;-65
2022/01/29 10:16:11;;;;;;;12.57;4.20;;;10.10;99.90;;;;;;5048451;28;25065;-65
2022/01/29 10:18:38;;;;;;;11.95;3.40;;;10.20;99.90;;;;;;5057316;28;25069;-67
2022/01/29 10:21:11;;;;;;;14.98;3.33;;;10.20;99.90;;;;;;5051210;28;25086;-65
2022/01/29 10:23:37;;;;;;;8.75;2.90;;;10.30;99.90;;;;;;5068831;28;25071;-66
2022/01/29 10:26:04;;;;;;;9.25;2.55;;;10.40;99.90;;;;;;5069177;28;25073;-62
2022/01/29 10:28:31;;;;;;;10.73;2.40;;;10.40;99.90;;;;;;5069912;28;25079;-66
2022/01/29 10:31:03;;;;;;;12.23;3.38;;;10.50;99.90;;;;;;5054258;28;25068;-66
2022/01/29 10:33:36;;;;;;;15.00;3.33;;;10.70;99.90;;;;;;5077141;28;25075;-67
2022/01/29 10:36:09;;;;;;;8.18;2.67;;;10.60;99.90;;;;;;5060321;28;25102;-65
2022/01/29 10:38:41;;;;;;;10.23;2.83;;;10.70;99.90;;;;;;5067006;28;25083;-67
2022/01/29 10:41:27;;;;;;;14.38;2.88;;;10.80;99.90;;;;;;5066651;28;25080;-65
2022/01/29 10:44:08;;;;;;;13.27;2.97;;;10.90;99.90;;;;;;5068137;28;25096;-66
2022/01/29 10:46:35;;;;;;;14.40;3.33;;;10.90;99.90;;;;;;5074570;28;25059;-67
2022/01/29 10:49:01;;;;;;;10.88;2.55;;;10.90;99.90;;;;;;5068746;28;25126;-66
2022/01/29 10:51:27;;;;;;;11.30;3.10;;;10.90;99.90;;;;;;5068190;28;25065;-66
2022/01/29 10:53:53;;;;;;;16.33;2.70;;;11.00;99.90;;;;;;5051378;28;25068;-65
2022/01/29 10:56:20;;;;;;;14.45;3.03;;;11.20;99.90;;;;;;5069071;28;25066;-65
2022/01/29 10:58:50;;;;;;;6.90;2.60;;;11.20;99.90;;;;;;5068491;28;25069;-65
2022/01/29 11:01:17;;;;;;;11.57;3.40;;;11.20;99.90;;;;;;5051096;28;25202;-65
2022/01/29 11:03:44;;;;;;;7.82;2.05;;;11.20;99.90;;;;;;5067371;28;25148;-65
2022/01/29 11:06:16;;;;;;;8.50;2.38;;;11.20;99.90;;;;;;5067615;28;25065;-65
2022/01/29 11:08:43;;;;;;;16.40;2.90;;;11.10;99.90;;;;;;5050875;28;25098;-66
2022/01/29 11:11:10;;;;;;;8.63;2.05;;;11.00;99.90;;;;;;5069571;28;25094;-66
2022/01/29 11:13:37;;;;;;;11.98;2.30;;;11.00;99.90;;;;;;5072221;28;25056;-67
2022/01/29 11:16:03;;;;;;;6.90;2.35;;;10.90;99.90;;;;;;5068806;28;25119;-68
2022/01/29 11:18:31;;;;;;;14.77;3.50;;;10.90;99.90;;;;;;5069941;28;25076;-66
2022/01/29 11:20:57;;;;;;;7.30;2.78;;;10.90;99.90;;;;;;5070181;28;25137;-66
2022/01/29 11:23:24;;;;;;;7.65;1.95;;;11.00;99.90;;;;;;5068448;28;25136;-66
2022/01/29 11:25:59;;;;;;;8.35;1.83;;;11.00;99.90;;;;;;5067190;28;25056;-66
2022/01/29 11:28:27;;;;;;;7.80;2.38;;;11.00;99.90;;;;;;5068686;28;25063;-68
2022/01/29 11:31:28;;;;;;;8.20;2.92;;;10.90;99.90;;;;;;5069528;28;25069;-67
2022/01/29 11:33:59;;;;;;;11.65;2.53;;;10.90;99.90;;;;;;5037973;28;25061;-66
2022/01/29 11:36:47;;;;;;;8.73;2.03;;;10.90;99.90;;;;;;5084639;28;25092;-64
2022/01/29 11:39:22;;;;;;;7.70;2.30;;;10.90;99.90;;;;;;5071024;28;25063;-64
2022/01/29 11:42:13;;;;;;;5.93;2.22;;;10.90;99.90;;;;;;5068918;28;25104;-65
2022/01/29 11:44:40;;;;;;;12.15;3.25;;;10.90;99.90;;;;;;5068059;28;25067;-68
2022/01/29 11:47:27;;;;;;;7.38;2.65;;;11.00;99.90;;;;;;5070379;28;25171;-67
2022/01/29 11:50:14;;;;;;;6.97;3.45;;;11.00;99.90;;;;;;5069654;28;25063;-69
2022/01/29 11:53:03;;;;;;;7.63;3.38;;;10.90;99.90;;;;;;5028847;28;25065;-65
2022/01/29 11:55:36;;;;;;;12.60;2.83;;;10.80;99.90;;;;;;5071612;28;25068;-66
2022/01/29 11:58:17;;;;;;;7.78;2.95;;;10.90;99.90;;;;;;5067271;28;25140;-64
2022/01/29 12:00:49;;;;;;;14.82;3.65;;;10.90;99.90;;;;;;5072946;28;25136;-64
2022/01/29 12:03:36;;;;;;;10.82;3.10;;;10.80;99.90;;;;;;5066518;28;25134;-66
2022/01/29 12:08:42;;;;;;;16.00;2.38;;;10.80;99.90;;;;;;5070408;28;25068;-67
2022/01/29 12:11:12;;;;;;;8.50;2.90;;;10.80;99.90;;;;;;5069551;28;25063;-68
2022/01/29 12:13:38;;;;;;;13.02;3.03;;;10.80;99.90;;;;;;5065532;28;25118;-65
2022/01/29 12:16:05;;;;;;;12.75;3.22;;;10.90;99.90;;;;;;5050983;28;25050;-66
2022/01/29 12:18:34;;;;;;;13.10;3.38;;;10.90;99.90;;;;;;5064514;28;25078;-65
2022/01/29 12:21:00;;;;;;;10.05;2.80;;;10.90;99.90;;;;;;5058588;22;25076;-61
2022/01/29 12:23:26;;;;;;;17.00;4.25;;;11.10;99.90;;;;;;5025336;28;25072;-64
2022/01/29 12:25:58;;;;;;;8.43;2.85;;;11.00;99.90;;;;;;5028235;28;25129;-63
2022/01/29 12:28:25;;;;;;;8.07;3.17;;;10.90;99.90;;;;;;5029478;28;25070;-62
2022/01/29 12:30:51;;;;;;;12.23;2.72;;;10.90;99.90;;;;;;5044634;28;25087;-62
2022/01/29 12:33:20;;;;;;;9.93;3.08;;;11.20;99.90;;;;;;5050968;28;25093;-61
2022/01/29 12:35:51;;;;;;;14.10;3.13;;;11.20;99.90;;;;;;5049980;28;25129;-61
2022/01/29 12:38:29;;;;;;;7.53;2.65;;;11.10;99.90;;;;;;5051052;28;25078;-62
2022/01/29 12:41:06;;;;;;;9.55;2.88;;;11.40;99.90;;;;;;5066038;28;25054;-64
2022/01/29 12:43:51;;;;;;;5.60;2.20;;;11.30;99.90;;;;;;5069574;28;25094;-61
2022/01/29 12:46:20;;;;;;;11.85;2.47;;;11.20;99.90;;;;;;5071552;28;25059;-65
2022/01/29 12:49:10;;;;;;;10.07;3.20;;;11.10;99.90;;;;;;5074760;28;25078;-64
2022/01/29 12:51:50;;;;;;;14.23;3.05;;;11.30;99.90;;;;;;5052234;28;25153;-65
2022/01/29 12:54:16;;;;;;;12.02;2.70;;;11.20;99.90;;;;;;5048834;28;25053;-63
2022/01/29 12:56:42;;;;;;;11.20;3.15;;;11.20;99.90;;;;;;5045741;28;25059;-62
2022/01/29 12:59:10;;;;;;;11.82;3.72;;;11.10;99.90;;;;;;5032573;28;25178;-62
2022/01/29 13:01:37;;;;;;;11.52;3.13;;;11.10;99.90;;;;;;5042800;28;25080;-64